Time;durP1;ratioP1;P1;durP2;ratioP2;P2;SDS_P1;SDS_P2;PMS_P1;PMS_P2;Temp;Humidity;BMP_temperature;BMP_pressure;BME280_temperature;BME280_humidity;BME280_pressure;Samples;Min_cycle;Max_cycle;Signal;HPM_P1;HPM_P2
2022/09/09 00:01:30;;;;;;;3.07;2.57;;;15.20;99.90;;;;;;5034401;28;20496;-86
2022/09/09 00:04:02;;;;;;;1.90;1.80;;;15.20;99.90;;;;;;5034434;28;20446;-85
2022/09/09 00:06:33;;;;;;;2.33;2.13;;;15.20;99.90;;;;;;5034745;28;20447;-85
2022/09/09 00:09:05;;;;;;;2.47;2.10;;;15.10;99.90;;;;;;5034804;28;20471;-85
2022/09/09 00:11:41;;;;;;;2.20;2.00;;;15.10;99.90;;;;;;5034525;28;20485;-86
2022/09/09 00:14:19;;;;;;;2.83;1.67;;;15.10;99.90;;;;;;5015057;28;20432;-86
2022/09/09 00:16:53;;;;;;;1.97;1.87;;;15.10;99.90;;;;;;5025796;28;20522;-85
2022/09/09 00:19:28;;;;;;;2.27;1.70;;;15.10;99.90;;;;;;5027254;28;20423;-85
2022/09/09 00:22:07;;;;;;;2.03;1.83;;;15.10;99.90;;;;;;5030124;28;20485;-85
2022/09/09 00:24:42;;;;;;;2.27;1.93;;;15.20;99.90;;;;;;5035372;28;20456;-85
2022/09/09 00:27:17;;;;;;;6.10;2.30;;;15.20;99.90;;;;;;5031232;28;20450;-85
2022/09/09 00:29:48;;;;;;;2.07;1.87;;;15.20;99.90;;;;;;5034150;28;20479;-85
2022/09/09 00:32:18;;;;;;;1.90;1.80;;;15.20;99.90;;;;;;5034444;28;20479;-85
2022/09/09 00:34:52;;;;;;;4.50;2.33;;;15.30;99.90;;;;;;5033432;28;20456;-85
2022/09/09 00:37:22;;;;;;;2.73;2.03;;;15.30;99.90;;;;;;5015158;28;20435;-85
2022/09/09 00:39:51;;;;;;;2.03;1.60;;;15.40;99.90;;;;;;5029281;28;20485;-85
2022/09/09 00:42:21;;;;;;;2.90;1.73;;;15.40;99.90;;;;;;5034224;28;20453;-85
2022/09/09 00:44:55;;;;;;;1.77;1.67;;;15.50;99.90;;;;;;5034721;28;20460;-85
2022/09/09 00:47:40;;;;;;;5.30;2.13;;;15.50;99.90;;;;;;5034087;28;20464;-85
2022/09/09 00:50:30;;;;;;;3.37;2.03;;;15.50;99.90;;;;;;5034692;28;20474;-85
2022/09/09 00:53:06;;;;;;;1.80;1.50;;;15.70;99.90;;;;;;5034393;28;20481;-85
2022/09/09 00:55:43;;;;;;;1.50;1.40;;;15.70;99.90;;;;;;5018421;28;20476;-84
2022/09/09 00:58:10;;;;;;;1.13;1.03;;;15.80;99.90;;;;;;5034054;28;20453;-85
2022/09/09 01:00:44;;;;;;;3.77;1.20;;;15.80;99.90;;;;;;5033996;28;20474;-85
2022/09/09 01:03:24;;;;;;;1.63;1.53;;;15.90;99.90;;;;;;5033711;28;20452;-85
2022/09/09 01:06:02;;;;;;;2.33;1.07;;;16.00;99.90;;;;;;5034145;28;20436;-85
2022/09/09 01:08:43;;;;;;;2.13;1.30;;;16.10;99.90;;;;;;5033236;28;20453;-85
2022/09/09 01:11:18;;;;;;;2.23;2.03;;;16.10;99.90;;;;;;5019416;28;20847;-85
2022/09/09 01:13:48;;;;;;;2.50;1.83;;;16.20;99.90;;;;;;5047621;28;20431;-84
2022/09/09 01:16:16;;;;;;;2.93;1.70;;;16.20;99.90;;;;;;5034617;28;20476;-86
2022/09/09 01:18:47;;;;;;;1.57;1.47;;;16.30;99.90;;;;;;5034054;28;20455;-84
2022/09/09 01:21:28;;;;;;;2.30;1.80;;;16.30;99.90;;;;;;5033743;28;20474;-85
2022/09/09 01:24:09;;;;;;;1.60;1.50;;;16.30;99.90;;;;;;5034241;28;20829;-85
2022/09/09 01:26:40;;;;;;;1.50;1.23;;;16.20;99.90;;;;;;5034191;28;20451;-84
2022/09/09 01:29:10;;;;;;;2.23;1.80;;;16.30;99.90;;;;;;5033687;28;20450;-85
2022/09/09 01:31:40;;;;;;;1.73;1.63;;;16.30;99.90;;;;;;5034015;28;20483;-85
2022/09/09 01:34:12;;;;;;;1.40;1.30;;;16.30;99.90;;;;;;5037540;28;20523;-85
2022/09/09 01:36:44;;;;;;;2.03;1.40;;;16.30;99.90;;;;;;5037674;28;20446;-85
2022/09/09 01:39:11;;;;;;;4.40;1.60;;;16.30;99.90;;;;;;5037403;28;20943;-85
2022/09/09 01:41:39;;;;;;;1.73;1.63;;;16.30;99.90;;;;;;5037434;28;20450;-85
2022/09/09 01:44:08;;;;;;;2.83;1.50;;;16.30;99.90;;;;;;5037571;28;20468;-85
2022/09/09 01:46:35;;;;;;;2.77;1.40;;;16.30;99.90;;;;;;5037127;28;20951;-84
2022/09/09 01:49:04;;;;;;;1.17;1.07;;;16.30;99.90;;;;;;5036804;28;20534;-85
2022/09/09 01:51:32;;;;;;;4.53;1.60;;;16.30;99.90;;;;;;5036970;28;20490;-86
2022/09/09 01:53:58;;;;;;;2.60;1.80;;;16.30;99.90;;;;;;5037667;28;20954;-85
2022/09/09 01:56:38;;;;;;;3.07;1.40;;;16.30;99.90;;;;;;5037459;28;20946;-85
2022/09/09 01:59:17;;;;;;;1.40;1.30;;;16.20;99.90;;;;;;5036730;28;20450;-85
2022/09/09 02:01:59;;;;;;;2.13;1.60;;;16.20;99.90;;;;;;5017322;28;20448;-87
2022/09/09 02:04:37;;;;;;;1.67;1.57;;;16.10;99.90;;;;;;5028679;28;20451;-85
2022/09/09 02:07:12;;;;;;;1.90;1.37;;;16.10;99.90;;;;;;5038856;28;20531;-85
2022/09/09 02:09:41;;;;;;;1.57;1.47;;;16.10;99.90;;;;;;5047578;28;20465;-84
2022/09/09 02:12:14;;;;;;;2.30;1.50;;;16.00;99.90;;;;;;5037731;28;20931;-85
2022/09/09 02:14:47;;;;;;;1.50;1.30;;;16.00;99.90;;;;;;5037472;28;20435;-85
2022/09/09 02:17:19;;;;;;;1.10;1.03;;;16.00;99.90;;;;;;5036617;28;20470;-84
2022/09/09 02:19:50;;;;;;;1.70;1.07;;;15.90;99.90;;;;;;5036728;28;20477;-86
2022/09/09 02:22:18;;;;;;;1.20;1.10;;;15.90;99.90;;;;;;5036449;28;20451;-85
2022/09/09 02:24:46;;;;;;;5.30;1.90;;;15.90;99.90;;;;;;5036630;28;20455;-85
2022/09/09 02:27:14;;;;;;;2.97;1.50;;;15.80;99.90;;;;;;5036641;28;20507;-85
2022/09/09 02:29:44;;;;;;;3.20;1.63;;;15.80;99.90;;;;;;5036009;28;20471;-85
2022/09/09 02:32:15;;;;;;;1.70;1.50;;;15.80;99.90;;;;;;5036007;28;20481;-84
2022/09/09 02:35:31;;;;;;;1.80;1.70;;;15.70;99.90;;;;;;5036985;28;20842;-84
2022/09/09 02:38:03;;;;;;;1.13;1.13;;;15.60;99.90;;;;;;5021601;28;21062;-85
2022/09/09 02:40:30;;;;;;;1.73;1.63;;;15.30;99.90;;;;;;5021423;28;20498;-84
2022/09/09 02:42:57;;;;;;;3.73;3.43;;;15.20;99.90;;;;;;5035919;28;20953;-85
2022/09/09 02:45:29;;;;;;;2.00;1.80;;;15.20;99.90;;;;;;5025641;28;20459;-85
2022/09/09 02:48:04;;;;;;;2.03;1.60;;;15.20;99.90;;;;;;5016556;28;20951;-85
2022/09/09 02:50:35;;;;;;;2.83;1.70;;;15.30;99.90;;;;;;5016905;28;20841;-85
2022/09/09 02:53:10;;;;;;;1.50;1.40;;;15.20;99.90;;;;;;5016752;28;20566;-85
2022/09/09 02:55:45;;;;;;;2.03;1.60;;;15.20;99.90;;;;;;5016843;28;20488;-85
2022/09/09 02:58:16;;;;;;;1.67;1.57;;;15.20;99.90;;;;;;5024302;28;20449;-85
2022/09/09 03:00:46;;;;;;;2.30;1.83;;;15.20;99.90;;;;;;5036077;28;20481;-85
2022/09/09 03:03:13;;;;;;;1.27;1.17;;;15.20;99.90;;;;;;5048775;28;20461;-85
2022/09/09 03:05:40;;;;;;;1.30;1.30;;;15.20;99.90;;;;;;5036584;28;20508;-85
2022/09/09 03:08:07;;;;;;;1.37;1.30;;;15.10;99.90;;;;;;5036160;28;20460;-84
2022/09/09 03:10:34;;;;;;;1.47;1.37;;;15.20;99.90;;;;;;5036875;28;20472;-84
2022/09/09 03:13:01;;;;;;;1.97;1.87;;;15.10;99.90;;;;;;5036178;28;21139;-85
2022/09/09 03:15:30;;;;;;;1.67;1.57;;;15.10;99.90;;;;;;5035621;28;20460;-85
2022/09/09 03:17:59;;;;;;;1.70;1.60;;;15.10;99.90;;;;;;5035779;28;20460;-85
2022/09/09 03:20:27;;;;;;;1.67;1.40;;;15.10;99.90;;;;;;5036172;28;20473;-85
2022/09/09 03:22:54;;;;;;;1.30;1.20;;;15.10;99.90;;;;;;5036028;28;20822;-85
2022/09/09 03:25:23;;;;;;;1.80;1.70;;;15.10;99.90;;;;;;5035819;28;20511;-85
2022/09/09 03:27:52;;;;;;;3.07;1.23;;;15.20;99.90;;;;;;5035167;28;20978;-85
2022/09/09 03:30:19;;;;;;;4.53;2.10;;;15.10;99.90;;;;;;5016283;28;20480;-85
2022/09/09 03:32:46;;;;;;;1.27;1.17;;;15.20;99.90;;;;;;5015992;28;20485;-85
2022/09/09 03:35:15;;;;;;;1.47;1.37;;;15.10;99.90;;;;;;5015768;28;20458;-85
2022/09/09 03:37:41;;;;;;;2.23;1.40;;;15.20;99.90;;;;;;5015504;28;20464;-85
2022/09/09 03:40:10;;;;;;;1.10;1.10;;;15.10;99.90;;;;;;5015430;28;20493;-84
2022/09/09 03:42:37;;;;;;;1.30;1.20;;;15.10;99.90;;;;;;5024617;28;20495;-85
2022/09/09 03:45:05;;;;;;;2.60;1.33;;;15.10;99.90;;;;;;5035466;28;20458;-85
2022/09/09 03:47:32;;;;;;;1.37;1.27;;;15.10;99.90;;;;;;5035598;28;20449;-85
2022/09/09 03:49:58;;;;;;;2.10;2.00;;;15.10;99.90;;;;;;5035184;28;20477;-85
2022/09/09 03:52:26;;;;;;;1.60;1.23;;;15.10;99.90;;;;;;5035286;28;20508;-85
2022/09/09 03:54:54;;;;;;;1.80;1.27;;;15.10;99.90;;;;;;5034545;28;20550;-85
2022/09/09 03:57:21;;;;;;;1.03;1.03;;;15.10;99.90;;;;;;5048310;28;20460;-85
2022/09/09 03:59:48;;;;;;;3.43;1.40;;;15.10;99.90;;;;;;5035070;28;21148;-85
2022/09/09 04:02:15;;;;;;;3.40;2.00;;;15.10;99.90;;;;;;5034065;28;20450;-83
2022/09/09 04:04:42;;;;;;;2.23;2.03;;;15.10;99.90;;;;;;5034337;28;20455;-83
2022/09/09 04:07:08;;;;;;;5.90;1.70;;;15.00;99.90;;;;;;5035728;28;20451;-85
2022/09/09 04:09:36;;;;;;;3.23;1.60;;;15.00;99.90;;;;;;5034401;28;20470;-84
2022/09/09 04:12:04;;;;;;;1.63;1.53;;;15.00;99.90;;;;;;5034518;28;20953;-85
2022/09/09 04:14:31;;;;;;;2.23;2.00;;;15.00;99.90;;;;;;5035144;28;20459;-85
2022/09/09 04:16:59;;;;;;;3.33;1.60;;;15.00;99.90;;;;;;5035236;28;20828;-84
2022/09/09 04:19:26;;;;;;;3.40;2.27;;;15.00;99.90;;;;;;5034721;28;20548;-85
2022/09/09 04:21:53;;;;;;;2.17;1.77;;;14.90;99.90;;;;;;5034621;28;20981;-85
2022/09/09 04:24:20;;;;;;;3.03;1.67;;;14.90;99.90;;;;;;5034388;28;20457;-85
2022/09/09 04:26:48;;;;;;;6.40;1.97;;;14.90;99.90;;;;;;5034991;28;20449;-84
2022/09/09 04:29:14;;;;;;;5.03;1.93;;;14.90;99.90;;;;;;5034676;28;20452;-84
2022/09/09 04:31:41;;;;;;;1.70;1.60;;;15.00;99.90;;;;;;5034608;28;20442;-85
2022/09/09 04:34:08;;;;;;;2.53;2.17;;;15.00;99.90;;;;;;5034625;28;20523;-85
2022/09/09 04:36:36;;;;;;;3.27;1.93;;;15.10;99.90;;;;;;5034893;28;20456;-84
2022/09/09 04:39:03;;;;;;;2.27;2.07;;;15.10;99.90;;;;;;5034126;28;20459;-85
2022/09/09 04:41:31;;;;;;;1.93;1.40;;;15.10;99.90;;;;;;5034319;28;20485;-85
2022/09/09 04:44:00;;;;;;;6.03;2.13;;;15.10;99.90;;;;;;5027175;28;20464;-85
2022/09/09 04:46:27;;;;;;;1.77;1.67;;;15.10;99.90;;;;;;5014974;28;20871;-85
2022/09/09 04:48:54;;;;;;;3.70;2.37;;;15.20;99.90;;;;;;5029411;28;20837;-86
2022/09/09 04:51:21;;;;;;;1.43;1.30;;;15.20;99.90;;;;;;5035295;28;20505;-85
2022/09/09 04:53:49;;;;;;;3.23;2.17;;;15.30;99.90;;;;;;5035532;28;20493;-84
2022/09/09 04:56:18;;;;;;;1.87;1.60;;;15.30;99.90;;;;;;5035209;28;20496;-82
2022/09/09 04:58:45;;;;;;;2.00;1.53;;;15.20;99.90;;;;;;5034336;28;20959;-83
2022/09/09 05:01:15;;;;;;;2.03;1.50;;;15.20;99.90;;;;;;5034312;28;20937;-84
2022/09/09 05:03:42;;;;;;;2.73;1.83;;;15.20;99.90;;;;;;5034508;28;20445;-84
2022/09/09 05:06:11;;;;;;;2.43;1.67;;;15.20;99.90;;;;;;5036464;28;20452;-84
2022/09/09 05:08:39;;;;;;;1.60;1.47;;;15.30;99.90;;;;;;5037994;28;20458;-84
2022/09/09 05:11:17;;;;;;;3.03;1.57;;;15.20;99.90;;;;;;5038326;28;20477;-84
2022/09/09 05:13:44;;;;;;;2.20;1.73;;;15.10;99.90;;;;;;5039094;28;20473;-84
2022/09/09 05:16:11;;;;;;;2.63;2.43;;;15.20;99.90;;;;;;5042439;28;20831;-84
2022/09/09 05:18:40;;;;;;;2.37;1.63;;;15.20;99.90;;;;;;5042233;28;20449;-86
2022/09/09 05:21:07;;;;;;;1.93;1.80;;;15.20;99.90;;;;;;5042077;28;20485;-84
2022/09/09 05:23:34;;;;;;;2.27;1.70;;;15.20;99.90;;;;;;5043325;28;20934;-80
2022/09/09 05:26:01;;;;;;;1.60;1.50;;;15.30;99.90;;;;;;5042644;28;20515;-83
2022/09/09 05:28:29;;;;;;;2.63;2.00;;;15.30;99.90;;;;;;5042083;28;20456;-84
2022/09/09 05:31:00;;;;;;;2.93;1.80;;;15.20;99.90;;;;;;5041914;28;20922;-83
2022/09/09 05:33:28;;;;;;;2.10;2.00;;;15.40;99.90;;;;;;5041746;28;20520;-84
2022/09/09 05:36:01;;;;;;;2.83;1.87;;;15.50;99.90;;;;;;5042031;28;20450;-84
2022/09/09 05:38:28;;;;;;;2.60;1.50;;;15.60;99.90;;;;;;5042047;28;20434;-83
2022/09/09 05:40:56;;;;;;;1.90;1.47;;;15.50;99.90;;;;;;5043244;28;20485;-82
2022/09/09 05:43:23;;;;;;;1.87;1.77;;;15.50;99.90;;;;;;5043803;28;20453;-83
2022/09/09 05:46:01;;;;;;;2.30;2.10;;;15.60;99.90;;;;;;5044376;28;20849;-83
2022/09/09 05:48:29;;;;;;;2.63;2.37;;;15.60;99.90;;;;;;5043952;28;20449;-83
2022/09/09 05:50:56;;;;;;;2.10;1.37;;;15.70;99.90;;;;;;5043015;28;20496;-83
2022/09/09 05:53:24;;;;;;;1.80;1.70;;;15.80;99.90;;;;;;5043799;28;20490;-83
2022/09/09 05:55:52;;;;;;;1.43;1.33;;;15.90;99.90;;;;;;5043649;28;20545;-83
2022/09/09 05:58:19;;;;;;;2.93;1.83;;;15.90;99.90;;;;;;5044167;28;20446;-83
2022/09/09 06:00:45;;;;;;;1.57;1.47;;;15.90;99.90;;;;;;5043654;28;20478;-81
2022/09/09 06:03:12;;;;;;;1.43;1.43;;;16.00;99.90;;;;;;5044201;28;20446;-83
2022/09/09 06:05:39;;;;;;;2.30;1.70;;;16.00;99.90;;;;;;5043668;28;20823;-83
2022/09/09 06:08:07;;;;;;;2.13;1.13;;;16.00;99.90;;;;;;5042933;28;20446;-82
2022/09/09 06:10:36;;;;;;;1.90;1.40;;;16.00;99.90;;;;;;5044048;28;20478;-83
2022/09/09 06:13:02;;;;;;;2.00;1.90;;;16.10;99.90;;;;;;5044967;28;20543;-83
2022/09/09 06:15:31;;;;;;;1.57;1.47;;;16.10;99.90;;;;;;5044568;28;20462;-83
2022/09/09 06:17:58;;;;;;;2.90;1.30;;;16.20;99.90;;;;;;5042859;28;20453;-82
2022/09/09 06:20:25;;;;;;;1.40;1.30;;;16.30;99.90;;;;;;5044839;28;20482;-83
2022/09/09 06:22:52;;;;;;;1.50;1.40;;;16.30;99.90;;;;;;5044656;28;20533;-83
2022/09/09 06:25:19;;;;;;;1.47;1.37;;;16.40;99.90;;;;;;5044311;28;20449;-83
2022/09/09 06:27:50;;;;;;;2.20;1.97;;;16.30;99.90;;;;;;5044324;28;20446;-83
2022/09/09 06:30:18;;;;;;;2.40;1.77;;;16.50;99.90;;;;;;5044559;28;20480;-83
2022/09/09 06:32:44;;;;;;;4.27;1.57;;;16.40;99.90;;;;;;5045594;28;20447;-83
2022/09/09 06:35:11;;;;;;;1.70;1.60;;;16.50;99.90;;;;;;5047004;28;20446;-83
2022/09/09 06:37:38;;;;;;;1.57;1.47;;;16.50;99.90;;;;;;5045642;28;20459;-81
2022/09/09 06:40:05;;;;;;;2.23;1.83;;;16.60;99.90;;;;;;5048684;28;20484;-83
2022/09/09 06:42:32;;;;;;;2.80;1.93;;;16.60;99.90;;;;;;5050364;28;20446;-83
2022/09/09 06:45:00;;;;;;;1.40;1.30;;;16.70;99.90;;;;;;5050297;28;20447;-83
2022/09/09 06:47:28;;;;;;;2.33;1.60;;;16.80;99.90;;;;;;5051125;28;20461;-82
2022/09/09 06:49:56;;;;;;;2.17;1.97;;;16.90;99.90;;;;;;5049968;28;20480;-83
2022/09/09 06:52:24;;;;;;;2.20;1.53;;;16.90;99.90;;;;;;5049165;28;20458;-83
2022/09/09 06:54:51;;;;;;;1.93;1.60;;;17.00;99.90;;;;;;5049229;28;20510;-83
2022/09/09 06:57:18;;;;;;;2.00;1.63;;;17.00;99.90;;;;;;5050477;28;20462;-83
2022/09/09 06:59:44;;;;;;;1.50;1.50;;;17.20;99.90;;;;;;5049086;28;20471;-83
2022/09/09 07:02:12;;;;;;;2.13;1.87;;;17.30;99.90;;;;;;5051755;28;20466;-84
2022/09/09 07:04:39;;;;;;;3.63;1.60;;;17.50;99.90;;;;;;5051995;28;20470;-83
2022/09/09 07:07:06;;;;;;;1.70;1.57;;;17.50;99.90;;;;;;5052650;28;20450;-83
2022/09/09 07:09:32;;;;;;;2.30;2.10;;;17.70;99.90;;;;;;5051399;28;20563;-83
2022/09/09 07:12:00;;;;;;;1.63;1.53;;;17.70;99.90;;;;;;5040127;28;20432;-83
2022/09/09 07:14:27;;;;;;;2.33;2.13;;;17.80;99.90;;;;;;5041943;28;20485;-82
2022/09/09 07:16:54;;;;;;;1.63;1.53;;;17.90;99.90;;;;;;5042685;28;20444;-85
2022/09/09 07:19:22;;;;;;;2.10;1.90;;;17.90;99.90;;;;;;5039713;28;20449;-82
2022/09/09 07:21:49;;;;;;;2.70;1.70;;;18.10;99.90;;;;;;5040198;28;20441;-83
2022/09/09 07:24:16;;;;;;;3.00;1.30;;;18.20;99.90;;;;;;5044706;28;20450;-82
2022/09/09 07:26:43;;;;;;;1.67;1.57;;;18.30;99.90;;;;;;5041927;28;20525;-83
2022/09/09 07:29:13;;;;;;;1.80;1.30;;;18.40;99.90;;;;;;5042233;28;20457;-82
2022/09/09 07:31:40;;;;;;;2.50;1.80;;;18.40;99.90;;;;;;5040701;28;20471;-85
2022/09/09 07:34:08;;;;;;;1.77;1.50;;;18.40;99.90;;;;;;5043962;28;20478;-84
2022/09/09 07:36:37;;;;;;;1.60;1.50;;;18.40;99.90;;;;;;5041626;28;20445;-83
2022/09/09 07:39:06;;;;;;;1.30;1.20;;;18.40;99.90;;;;;;5043437;28;20451;-83
2022/09/09 07:41:35;;;;;;;1.43;1.33;;;18.40;99.90;;;;;;5043324;28;20868;-83
2022/09/09 07:44:06;;;;;;;4.07;1.43;;;18.50;99.90;;;;;;5043319;28;20500;-83
2022/09/09 07:46:33;;;;;;;2.20;1.40;;;18.40;99.90;;;;;;5041519;28;20444;-83
2022/09/09 07:49:00;;;;;;;2.43;2.10;;;18.40;99.90;;;;;;5042092;28;20446;-82
2022/09/09 07:51:29;;;;;;;1.53;1.43;;;18.40;99.90;;;;;;5040492;28;20471;-83
2022/09/09 07:53:59;;;;;;;1.70;1.60;;;18.40;99.90;;;;;;5040311;28;20483;-83
2022/09/09 07:56:27;;;;;;;1.40;1.33;;;18.50;99.90;;;;;;5040672;28;20461;-84
2022/09/09 07:58:56;;;;;;;2.60;1.97;;;18.60;99.90;;;;;;5040622;28;20524;-82
2022/09/09 08:01:26;;;;;;;2.70;1.90;;;18.50;99.90;;;;;;5048743;28;20478;-83
2022/09/09 08:03:59;;;;;;;4.07;2.30;;;18.60;99.90;;;;;;5046718;28;20449;-82
2022/09/09 08:06:26;;;;;;;2.27;1.73;;;18.70;99.90;;;;;;5044690;28;20463;-84
2022/09/09 08:08:54;;;;;;;2.20;1.30;;;18.70;99.90;;;;;;5042750;28;20472;-83
2022/09/09 08:11:26;;;;;;;1.47;1.37;;;18.60;99.90;;;;;;5043199;28;20889;-84
2022/09/09 08:13:53;;;;;;;3.30;1.37;;;18.70;99.90;;;;;;5049809;28;20486;-82
2022/09/09 08:16:22;;;;;;;2.30;1.27;;;18.80;99.90;;;;;;5045924;28;20452;-84
2022/09/09 08:18:50;;;;;;;3.10;1.30;;;18.90;99.90;;;;;;5042267;28;20475;-82
2022/09/09 08:21:18;;;;;;;1.77;1.67;;;18.90;99.90;;;;;;5040333;28;20229;-82
2022/09/09 08:23:51;;;;;;;2.80;1.70;;;19.10;99.90;;;;;;5040166;28;20477;-85
2022/09/09 08:26:22;;;;;;;3.70;1.70;;;19.10;99.90;;;;;;5043466;28;20958;-84
2022/09/09 08:28:52;;;;;;;2.53;1.50;;;19.20;99.90;;;;;;5039210;28;20547;-81
2022/09/09 08:31:20;;;;;;;2.00;1.80;;;19.20;99.90;;;;;;5040581;28;20464;-81
2022/09/09 08:33:48;;;;;;;2.07;1.27;;;19.20;99.90;;;;;;5033952;28;20599;-83
2022/09/09 08:36:16;;;;;;;3.27;1.70;;;19.30;99.90;;;;;;5028027;28;20460;-84
2022/09/09 08:38:45;;;;;;;3.23;1.57;;;19.40;99.90;;;;;;5028597;28;20457;-81
2022/09/09 08:41:39;;;;;;;1.87;1.77;;;19.50;99.90;;;;;;5030839;28;20531;-82
2022/09/09 08:44:15;;;;;;;1.40;1.30;;;19.60;99.90;;;;;;5029282;28;20759;-82
2022/09/09 08:46:52;;;;;;;1.60;1.40;;;19.70;99.90;;;;;;5040341;28;20601;-85
2022/09/09 08:49:38;;;;;;;3.70;1.47;;;19.80;99.90;;;;;;5030024;28;20998;-81
2022/09/09 08:52:15;;;;;;;3.60;1.40;;;19.90;99.90;;;;;;5026450;28;20538;-82
2022/09/09 08:54:42;;;;;;;2.47;2.27;;;19.90;99.90;;;;;;5031635;28;20472;-82
2022/09/09 08:57:20;;;;;;;2.57;1.10;;;20.00;99.90;;;;;;5039401;28;20445;-84
2022/09/09 08:59:50;;;;;;;1.70;1.20;;;20.10;99.90;;;;;;5038402;28;20499;-80
2022/09/09 09:02:22;;;;;;;5.37;1.47;;;20.20;99.90;;;;;;5040623;28;20449;-79
2022/09/09 09:05:10;;;;;;;1.83;1.50;;;20.40;99.90;;;;;;5041970;28;20450;-82
2022/09/09 09:07:50;;;;;;;5.40;2.40;;;20.60;99.80;;;;;;5040947;28;20450;-82
2022/09/09 09:10:32;;;;;;;2.30;1.20;;;20.70;99.30;;;;;;5039831;28;20469;-82
2022/09/09 09:12:59;;;;;;;1.87;1.50;;;21.00;98.50;;;;;;5042325;28;20455;-83
2022/09/09 09:15:36;;;;;;;2.73;2.47;;;21.20;98.90;;;;;;5040934;28;20477;-83
2022/09/09 09:18:03;;;;;;;1.60;1.50;;;21.40;97.90;;;;;;5042274;28;20454;-84
2022/09/09 09:20:41;;;;;;;4.13;1.17;;;21.30;97.60;;;;;;5037823;28;20476;-84
2022/09/09 09:23:16;;;;;;;2.83;1.70;;;21.00;99.50;;;;;;5038133;28;20492;-85
2022/09/09 09:25:45;;;;;;;2.13;1.07;;;20.50;99.90;;;;;;5038138;28;20441;-85
2022/09/09 09:28:17;;;;;;;6.43;2.50;;;19.80;99.90;;;;;;5039069;28;20453;-84
2022/09/09 09:30:52;;;;;;;1.33;1.23;;;19.00;99.90;;;;;;5038087;28;20484;-81
2022/09/09 09:33:24;;;;;;;2.27;1.33;;;18.60;99.90;;;;;;5019519;28;20453;-82
2022/09/09 09:35:51;;;;;;;2.43;1.60;;;17.80;99.90;;;;;;5018541;28;20486;-82
2022/09/09 09:38:20;;;;;;;1.60;1.50;;;17.60;99.90;;;;;;5020779;28;20456;-83
2022/09/09 09:40:51;;;;;;;1.60;1.20;;;17.20;99.90;;;;;;5031348;28;20489;-82
2022/09/09 09:43:24;;;;;;;1.30;1.20;;;17.10;99.90;;;;;;5031659;28;20970;-83
2022/09/09 09:45:52;;;;;;;3.70;1.90;;;16.90;99.90;;;;;;5035554;28;20467;-82
2022/09/09 09:48:19;;;;;;;1.23;0.97;;;16.90;99.90;;;;;;5037626;28;20459;-83
2022/09/09 09:50:52;;;;;;;2.67;1.70;;;16.90;99.90;;;;;;5039683;28;21002;-83
2022/09/09 09:53:23;;;;;;;2.47;2.17;;;16.90;99.90;;;;;;5039950;28;20948;-84
2022/09/09 09:55:55;;;;;;;3.30;2.10;;;17.00;99.90;;;;;;5042265;28;20555;-85
2022/09/09 09:58:22;;;;;;;2.00;1.60;;;17.10;99.90;;;;;;5040046;28;20462;-82
2022/09/09 10:00:50;;;;;;;2.17;1.40;;;17.20;99.90;;;;;;5038770;28;20487;-83
2022/09/09 10:03:26;;;;;;;3.03;1.30;;;17.30;99.90;;;;;;5040063;28;20454;-82
2022/09/09 10:05:54;;;;;;;2.00;1.90;;;17.30;99.90;;;;;;5030732;28;20448;-81
2022/09/09 10:08:24;;;;;;;1.50;1.40;;;17.40;99.90;;;;;;5037643;28;20463;-81
2022/09/09 10:11:05;;;;;;;1.87;1.77;;;17.60;99.90;;;;;;5038517;28;20468;-81
2022/09/09 10:13:41;;;;;;;2.87;1.57;;;17.90;99.90;;;;;;5037548;28;20820;-81
2022/09/09 10:16:20;;;;;;;2.40;2.03;;;18.20;99.90;;;;;;5037857;28;20487;-81
2022/09/09 10:18:59;;;;;;;1.60;1.40;;;18.40;99.90;;;;;;5038290;28;20937;-81
2022/09/09 10:21:38;;;;;;;5.70;1.70;;;18.60;99.90;;;;;;5040470;28;20477;-83
2022/09/09 10:24:23;;;;;;;1.53;1.37;;;19.00;99.90;;;;;;5046562;28;20444;-83
2022/09/09 10:26:57;;;;;;;2.40;1.30;;;19.30;99.90;;;;;;5039241;28;20449;-83
2022/09/09 10:29:50;;;;;;;2.50;1.77;;;19.60;99.90;;;;;;5040246;28;20478;-83
2022/09/09 10:32:37;;;;;;;2.33;1.50;;;19.80;99.90;;;;;;5039609;28;20449;-83
2022/09/09 10:35:29;;;;;;;1.03;1.00;;;20.10;99.90;;;;;;5040037;28;21294;-82
2022/09/09 10:38:14;;;;;;;1.77;1.20;;;20.30;99.90;;;;;;5039500;28;20453;-83
2022/09/09 10:40:51;;;;;;;3.77;1.57;;;20.60;99.90;;;;;;5039239;28;20481;-83
2022/09/09 10:43:34;;;;;;;1.03;0.90;;;21.00;99.90;;;;;;5040551;28;20460;-84
2022/09/09 10:46:07;;;;;;;2.50;1.70;;;21.40;99.90;;;;;;5040462;28;20430;-84
2022/09/09 10:48:48;;;;;;;2.80;1.70;;;21.60;99.90;;;;;;5039475;28;20459;-84
2022/09/09 10:51:27;;;;;;;4.30;1.57;;;21.70;99.90;;;;;;5039204;28;20472;-83
2022/09/09 10:54:07;;;;;;;1.93;1.70;;;21.90;99.90;;;;;;5038575;28;20457;-84
2022/09/09 10:56:36;;;;;;;2.60;1.33;;;21.70;99.90;;;;;;5039005;28;20443;-83
2022/09/09 10:59:08;;;;;;;1.90;1.30;;;21.70;99.90;;;;;;5018780;28;20463;-82
2022/09/09 11:01:40;;;;;;;1.90;1.73;;;21.90;99.90;;;;;;5019355;28;20482;-84
2022/09/09 11:04:14;;;;;;;5.80;1.57;;;22.10;99.90;;;;;;5019145;28;20453;-84
2022/09/09 11:06:47;;;;;;;4.80;1.63;;;22.10;99.90;;;;;;5020130;28;20475;-81
2022/09/09 11:09:17;;;;;;;1.53;1.40;;;22.30;99.90;;;;;;5019817;28;20464;-85
2022/09/09 11:11:51;;;;;;;3.40;1.40;;;22.30;99.90;;;;;;5022352;28;20456;-85
2022/09/09 11:14:24;;;;;;;4.20;1.60;;;22.30;99.90;;;;;;5040154;28;20468;-83
2022/09/09 11:16:56;;;;;;;2.50;1.37;;;22.30;99.90;;;;;;5040602;28;20454;-80
2022/09/09 11:19:28;;;;;;;1.73;1.30;;;22.20;99.90;;;;;;5048300;28;20456;-83
2022/09/09 11:21:58;;;;;;;1.90;1.07;;;21.90;99.70;;;;;;5039790;28;20464;-82
2022/09/09 11:24:31;;;;;;;1.53;1.00;;;21.80;99.90;;;;;;5038248;28;20822;-82
2022/09/09 11:27:03;;;;;;;0.80;0.80;;;21.30;99.90;;;;;;5041426;28;20453;-82
2022/09/09 11:29:50;;;;;;;1.70;0.77;;;21.00;98.40;;;;;;5040592;28;20805;-83
2022/09/09 11:32:34;;;;;;;2.30;0.93;;;20.50;97.70;;;;;;5020596;28;20454;-82
2022/09/09 11:35:13;;;;;;;0.80;0.80;;;20.10;98.50;;;;;;5032325;28;20472;-82
2022/09/09 11:37:54;;;;;;;0.97;0.90;;;20.00;99.50;;;;;;5039520;28;20445;-83
2022/09/09 11:40:25;;;;;;;1.83;1.37;;;20.00;99.50;;;;;;5039761;28;20477;-81
2022/09/09 11:43:04;;;;;;;2.67;1.10;;;19.90;98.60;;;;;;5039983;28;20456;-82
2022/09/09 11:45:35;;;;;;;1.83;0.83;;;19.40;98.50;;;;;;5038734;28;20448;-82
2022/09/09 11:48:05;;;;;;;1.40;0.77;;;19.40;99.90;;;;;;5037106;28;20456;-80
2022/09/09 11:50:35;;;;;;;0.50;0.43;;;19.40;99.50;;;;;;5035205;28;20560;-80
2022/09/09 11:53:23;;;;;;;0.50;0.43;;;19.40;99.30;;;;;;5037701;28;20452;-82
2022/09/09 11:56:06;;;;;;;0.80;0.60;;;19.60;99.90;;;;;;5036827;28;20477;-80
2022/09/09 11:58:40;;;;;;;1.73;0.50;;;20.10;99.90;;;;;;5037183;28;20513;-81
2022/09/09 12:01:28;;;;;;;0.30;0.30;;;20.90;98.90;;;;;;5037362;28;20473;-81
2022/09/09 12:04:10;;;;;;;0.90;0.70;;;21.60;97.80;;;;;;5037826;28;20512;-81
2022/09/09 12:06:45;;;;;;;0.43;0.43;;;21.80;95.80;;;;;;5036662;28;20463;-81
2022/09/09 12:09:24;;;;;;;0.50;0.30;;;21.70;95.20;;;;;;5037989;28;20462;-81
2022/09/09 12:11:51;;;;;;;1.57;1.30;;;21.50;94.80;;;;;;5038301;28;21002;-80
2022/09/09 12:14:23;;;;;;;0.60;0.47;;;21.50;97.80;;;;;;5049571;28;20463;-81
2022/09/09 12:16:50;;;;;;;0.40;0.40;;;22.10;96.80;;;;;;5037187;28;20940;-81
2022/09/09 12:19:21;;;;;;;0.50;0.20;;;22.50;96.90;;;;;;5037847;28;20466;-81
2022/09/09 12:21:55;;;;;;;0.30;0.27;;;23.00;98.80;;;;;;5038935;28;20455;-81
2022/09/09 12:24:31;;;;;;;1.33;1.23;;;23.70;94.70;;;;;;5038204;28;20457;-81
2022/09/09 12:27:02;;;;;;;0.50;0.43;;;24.40;96.20;;;;;;5036779;28;20510;-82
2022/09/09 12:29:40;;;;;;;0.93;0.50;;;25.20;94.10;;;;;;5036489;28;20466;-82
2022/09/09 12:32:10;;;;;;;0.77;0.40;;;26.10;93.70;;;;;;5039847;28;20461;-83
2022/09/09 12:34:41;;;;;;;0.40;0.37;;;26.30;86.20;;;;;;5040542;28;20957;-83
2022/09/09 12:37:18;;;;;;;2.07;0.73;;;26.20;83.40;;;;;;5039506;28;20451;-82
2022/09/09 12:39:50;;;;;;;0.83;0.60;;;26.00;79.60;;;;;;5019195;28;20518;-81
2022/09/09 12:42:19;;;;;;;1.27;0.67;;;26.10;80.10;;;;;;5031889;28;20457;-82
2022/09/09 12:44:53;;;;;;;2.00;0.70;;;26.20;78.90;;;;;;5035196;28;20450;-81
2022/09/09 12:47:22;;;;;;;0.60;0.43;;;25.80;77.40;;;;;;5031376;28;20838;-84
2022/09/09 12:49:49;;;;;;;0.80;0.70;;;25.50;76.90;;;;;;5016420;28;20466;-82
2022/09/09 12:52:23;;;;;;;1.93;0.97;;;25.00;77.90;;;;;;5031040;28;20654;-80
2022/09/09 12:54:53;;;;;;;3.10;1.00;;;24.60;80.70;;;;;;5036779;28;20810;-80
2022/09/09 12:57:22;;;;;;;2.10;0.93;;;24.40;81.40;;;;;;5035722;28;20454;-80
2022/09/09 12:59:49;;;;;;;1.70;0.80;;;24.60;81.30;;;;;;5035923;28;20476;-80
2022/09/09 13:02:22;;;;;;;2.23;0.60;;;25.20;80.80;;;;;;5037390;28;20456;-80
2022/09/09 13:04:50;;;;;;;1.50;1.00;;;25.20;77.70;;;;;;5036413;28;20464;-80
2022/09/09 13:07:17;;;;;;;1.40;0.60;;;25.10;79.40;;;;;;5036826;28;20455;-80
2022/09/09 13:09:45;;;;;;;1.27;1.13;;;24.60;79.00;;;;;;5047605;28;20997;-80